createdAt,value
2018-07-11T00:02:04.322Z,16.10
2018-07-11T00:07:00.068Z,16.10
2018-07-11T00:09:28.038Z,16.00
2018-07-11T00:11:55.693Z,15.90
2018-07-11T00:14:23.610Z,15.90
2018-07-11T00:16:56.801Z,15.80
2018-07-11T00:19:25.564Z,15.80
2018-07-11T00:21:53.760Z,15.90
2018-07-11T00:24:21.332Z,15.90
2018-07-11T00:26:48.936Z,15.90
2018-07-11T00:29:16.540Z,15.90
2018-07-11T00:31:44.525Z,15.80
2018-07-11T00:34:12.684Z,15.80
2018-07-11T00:36:40.287Z,15.90
2018-07-11T00:39:07.813Z,15.80
2018-07-11T00:41:36.960Z,15.80
2018-07-11T00:44:04.872Z,15.90
2018-07-11T00:46:33.206Z,15.80
2018-07-11T00:49:01.136Z,15.80
2018-07-11T00:51:28.751Z,15.70
2018-07-11T00:53:56.330Z,15.70
2018-07-11T00:56:23.954Z,15.70
2018-07-11T00:58:57.962Z,15.70
2018-07-11T01:01:25.663Z,15.70
2018-07-11T01:03:56.795Z,15.70
2018-07-11T01:06:24.418Z,15.60
2018-07-11T01:08:55.586Z,15.60
2018-07-11T01:11:23.370Z,15.60
2018-07-11T01:13:51.560Z,15.50
2018-07-11T01:16:20.615Z,15.60
2018-07-11T01:19:11.141Z,15.60
2018-07-11T01:21:39.112Z,15.60
2018-07-11T01:24:06.791Z,15.70
2018-07-11T01:26:36.434Z,15.60
2018-07-11T01:29:04.695Z,15.70
2018-07-11T01:31:32.286Z,15.60
2018-07-11T01:34:00.902Z,15.60
2018-07-11T01:38:57.686Z,15.70
2018-07-11T01:41:25.230Z,15.60
2018-07-11T01:43:53.195Z,15.60
2018-07-11T01:46:20.767Z,15.60
2018-07-11T01:48:48.370Z,15.40
2018-07-11T01:51:15.948Z,15.40
2018-07-11T01:53:43.495Z,15.40
2018-07-11T01:56:11.558Z,15.40
2018-07-11T01:58:41.012Z,15.40
2018-07-11T02:01:09.117Z,15.40
2018-07-11T02:03:37.706Z,15.40
2018-07-11T02:06:05.263Z,15.40
2018-07-11T02:08:33.399Z,15.40
2018-07-11T02:11:01.308Z,15.40
2018-07-11T02:13:28.906Z,15.30
2018-07-11T02:15:56.792Z,15.40
2018-07-11T02:18:26.490Z,15.40
2018-07-11T02:20:54.797Z,15.40
2018-07-11T02:23:23.077Z,15.40
2018-07-11T02:25:50.781Z,15.40
2018-07-11T02:28:18.914Z,15.30
2018-07-11T02:30:46.809Z,15.30
2018-07-11T02:33:14.391Z,15.30
2018-07-11T02:35:42.711Z,15.40
2018-07-11T02:38:10.823Z,15.40
2018-07-11T02:40:38.419Z,15.40
2018-07-11T02:43:06.446Z,15.40
2018-07-11T02:45:34.554Z,15.50
2018-07-11T02:48:02.359Z,15.60
2018-07-11T02:50:30.475Z,15.60
2018-07-11T02:52:58.631Z,15.60
2018-07-11T02:55:26.216Z,15.60
2018-07-11T02:57:53.768Z,15.70
2018-07-11T03:00:21.863Z,15.60
2018-07-11T03:02:50.205Z,15.60
2018-07-11T03:05:19.376Z,15.60
2018-07-11T03:07:47.793Z,15.60
2018-07-11T03:10:15.368Z,15.60
2018-07-11T03:12:42.904Z,15.60
2018-07-11T03:15:11.084Z,15.60
2018-07-11T03:17:39.688Z,15.60
2018-07-11T03:20:07.254Z,15.50
2018-07-11T03:22:34.804Z,15.50
2018-07-11T03:25:02.425Z,15.50
2018-07-11T03:27:30.020Z,15.50
2018-07-11T03:29:57.694Z,15.50
2018-07-11T03:32:25.376Z,15.60
2018-07-11T03:34:54.085Z,15.60
2018-07-11T03:37:21.640Z,15.60
2018-07-11T03:39:49.998Z,15.50
2018-07-11T03:42:17.921Z,15.50
2018-07-11T03:44:45.975Z,15.50
2018-07-11T03:49:41.640Z,15.50
2018-07-11T03:52:09.239Z,15.50
2018-07-11T03:54:37.016Z,15.50
2018-07-11T03:57:04.571Z,15.50
2018-07-11T03:59:33.203Z,15.50
2018-07-11T04:02:01.601Z,15.40
2018-07-11T04:04:29.107Z,15.40
2018-07-11T04:06:57.019Z,15.40
2018-07-11T04:16:12.492Z,15.40
2018-07-11T04:18:41.131Z,15.30
2018-07-11T04:21:08.625Z,15.30
2018-07-11T04:23:36.913Z,15.30
2018-07-11T04:26:05.708Z,15.40
2018-07-11T04:28:33.264Z,15.40
2018-07-11T04:33:29.433Z,15.50
2018-07-11T04:35:56.988Z,15.50
2018-07-11T04:38:24.961Z,15.60
2018-07-11T04:40:52.584Z,15.60
2018-07-11T04:43:22.714Z,15.60
2018-07-11T04:45:50.852Z,15.60
2018-07-11T04:48:19.432Z,15.70
2018-07-11T04:50:47.516Z,15.60
2018-07-11T04:53:19.944Z,15.60
2018-07-11T04:55:47.578Z,15.60
2018-07-11T04:58:15.084Z,15.70
2018-07-11T05:00:42.881Z,15.70
2018-07-11T05:03:12.084Z,15.70
2018-07-11T05:05:39.595Z,15.80
2018-07-11T05:08:07.441Z,15.80
2018-07-11T05:10:35.537Z,15.80
2018-07-11T05:13:03.089Z,15.80
2018-07-11T05:15:30.644Z,15.80
2018-07-11T05:17:58.680Z,15.90
2018-07-11T05:20:26.192Z,15.80
2018-07-11T05:22:53.698Z,16.00
2018-07-11T05:25:21.255Z,16.10
2018-07-11T05:27:48.746Z,16.10
2018-07-11T05:30:16.546Z,16.20
2018-07-11T05:32:44.087Z,16.10
2018-07-11T05:35:12.354Z,16.20
2018-07-11T05:37:40.266Z,16.10
2018-07-11T05:40:07.775Z,16.10
2018-07-11T05:42:35.696Z,16.10
2018-07-11T05:45:03.534Z,16.10
2018-07-11T05:47:31.042Z,16.10
2018-07-11T05:49:58.609Z,16.10
2018-07-11T05:52:26.127Z,16.10
2018-07-11T05:54:53.644Z,16.10
2018-07-11T05:57:21.223Z,16.20
2018-07-11T05:59:49.329Z,16.20
2018-07-11T06:02:17.310Z,16.20
2018-07-11T06:04:44.819Z,16.20
2018-07-11T06:07:13.147Z,16.20
2018-07-11T06:09:42.186Z,16.20
2018-07-11T06:12:09.662Z,16.20
2018-07-11T06:14:37.218Z,16.20
2018-07-11T06:17:04.760Z,16.30
2018-07-11T06:19:33.116Z,16.30
2018-07-11T06:22:00.639Z,16.30
2018-07-11T06:24:28.131Z,16.50
2018-07-11T06:26:56.175Z,16.50
2018-07-11T06:29:23.697Z,16.50
2018-07-11T06:31:51.770Z,16.50
2018-07-11T06:34:19.669Z,16.50
2018-07-11T06:36:47.170Z,16.50
2018-07-11T06:39:14.707Z,16.50
2018-07-11T06:41:42.666Z,16.50
2018-07-11T06:44:10.615Z,16.50
2018-07-11T06:46:39.050Z,16.60
2018-07-11T06:49:06.620Z,16.60
2018-07-11T06:51:34.215Z,16.60
2018-07-11T06:54:01.832Z,16.50
2018-07-11T06:56:29.428Z,16.50
2018-07-11T06:58:57.376Z,16.60
2018-07-11T07:01:24.957Z,16.50
2018-07-11T07:03:52.894Z,16.50
2018-07-11T07:06:21.121Z,16.60
2018-07-11T07:08:49.055Z,16.60
2018-07-11T07:11:16.556Z,16.60
2018-07-11T07:13:44.075Z,16.60
2018-07-11T07:16:11.783Z,16.70
2018-07-11T07:18:39.912Z,16.70
2018-07-11T07:21:07.415Z,16.80
2018-07-11T07:23:34.929Z,16.70
2018-07-11T07:26:02.489Z,16.80
2018-07-11T07:28:30.735Z,16.80
2018-07-11T07:30:58.893Z,16.80
2018-07-11T07:33:27.786Z,16.80
2018-07-11T07:35:55.836Z,16.80
2018-07-11T07:38:23.771Z,16.70
2018-07-11T07:40:51.498Z,16.80
2018-07-11T07:43:19.652Z,16.80
2018-07-11T07:45:47.217Z,16.80
2018-07-11T07:48:14.884Z,16.80
2018-07-11T07:50:43.455Z,16.80
2018-07-11T07:53:11.056Z,16.90
2018-07-11T07:55:39.008Z,16.80
2018-07-11T07:58:06.617Z,16.80
2018-07-11T08:00:35.046Z,16.80
2018-07-11T08:03:03.008Z,16.80
2018-07-11T08:05:31.322Z,16.80
2018-07-11T08:07:59.463Z,16.80
2018-07-11T08:10:27.711Z,16.80
2018-07-11T08:12:55.233Z,16.80
2018-07-11T08:15:22.803Z,16.80
2018-07-11T08:17:51.151Z,16.80
2018-07-11T08:20:18.863Z,16.70
2018-07-11T08:23:10.585Z,16.80
2018-07-11T08:25:49.698Z,16.90
2018-07-11T08:29:28.250Z,16.90
2018-07-11T08:32:06.146Z,16.90
2018-07-11T08:36:58.611Z,16.90
2018-07-11T08:40:41.044Z,16.80
2018-07-11T08:43:22.603Z,16.80
2018-07-11T08:46:04.540Z,16.90
2018-07-11T08:49:42.306Z,16.80
2018-07-11T08:52:23.748Z,16.80
2018-07-11T08:55:36.506Z,16.80
2018-07-11T09:02:52.323Z,16.90
2018-07-11T09:05:30.101Z,17.00
2018-07-11T09:08:18.119Z,17.10
2018-07-11T09:13:00.632Z,17.20
2018-07-11T09:17:45.731Z,17.40
2018-07-11T09:20:24.404Z,17.60
2018-07-11T09:23:19.928Z,17.70
2018-07-11T09:25:47.928Z,17.80
2018-07-11T09:28:15.916Z,17.80
2018-07-11T09:30:43.984Z,17.90
2018-07-11T09:33:12.636Z,17.90
2018-07-11T09:35:40.970Z,17.90
2018-07-11T09:38:08.492Z,17.90
2018-07-11T09:40:36.220Z,17.90
2018-07-11T09:43:03.802Z,17.90
2018-07-11T09:45:32.053Z,18.00
2018-07-11T09:47:59.624Z,18.00
2018-07-11T09:50:27.600Z,18.10
2018-07-11T09:52:55.176Z,18.10
2018-07-11T09:55:22.804Z,18.10
2018-07-11T09:57:50.522Z,18.30
2018-07-11T10:00:24.289Z,18.30
2018-07-11T10:02:52.312Z,18.10
2018-07-11T10:05:20.297Z,18.20
2018-07-11T10:07:48.468Z,18.20
2018-07-11T10:10:17.464Z,18.20
2018-07-11T10:12:45.736Z,18.00
2018-07-11T10:15:13.249Z,18.10
2018-07-11T10:17:41.425Z,18.20
2018-07-11T10:20:09.069Z,18.30
2018-07-11T10:22:36.960Z,18.40
2018-07-11T10:25:04.546Z,18.40
2018-07-11T10:27:32.127Z,18.50
2018-07-11T10:29:59.678Z,18.50
2018-07-11T10:32:27.242Z,18.40
2018-07-11T10:34:55.119Z,18.40
2018-07-11T10:37:22.669Z,18.50
2018-07-11T10:39:50.209Z,18.60
2018-07-11T10:42:17.929Z,18.50
2018-07-11T10:44:45.928Z,18.60
2018-07-11T10:47:13.755Z,18.70
2018-07-11T10:49:42.828Z,18.80
2018-07-11T10:52:10.703Z,18.80
2018-07-11T10:54:38.721Z,18.80
2018-07-11T10:57:06.798Z,18.80
2018-07-11T10:59:34.409Z,18.70
2018-07-11T11:02:02.008Z,18.80
2018-07-11T11:04:30.434Z,18.70
2018-07-11T11:06:58.002Z,18.70
2018-07-11T11:09:26.289Z,18.60
2018-07-11T11:11:53.839Z,18.50
2018-07-11T11:16:49.409Z,18.30
2018-07-11T11:19:18.275Z,18.20
2018-07-11T11:21:46.384Z,18.20
2018-07-11T11:24:14.223Z,18.10
2018-07-11T11:26:41.771Z,18.10
2018-07-11T11:29:09.296Z,18.00
2018-07-11T11:31:36.850Z,18.00
2018-07-11T11:34:04.895Z,17.90
2018-07-11T11:36:32.417Z,17.70
2018-07-11T11:38:59.930Z,17.70
2018-07-11T11:41:27.653Z,17.70
2018-07-11T11:43:55.771Z,17.70
2018-07-11T11:46:23.867Z,17.80
2018-07-11T11:48:51.379Z,17.80
2018-07-11T11:51:18.906Z,17.80
2018-07-11T11:53:47.098Z,18.00
2018-07-11T11:56:14.684Z,18.00
2018-07-11T11:58:42.260Z,18.20
2018-07-11T12:01:09.813Z,18.20
2018-07-11T12:03:37.873Z,18.30
2018-07-11T12:06:05.727Z,18.50
2018-07-11T12:08:33.633Z,18.70
2018-07-11T12:11:01.170Z,19.10
2018-07-11T12:13:28.739Z,19.50
2018-07-11T12:15:56.354Z,19.70
2018-07-11T12:18:25.196Z,19.80
2018-07-11T12:20:56.330Z,19.90
2018-07-11T12:23:23.924Z,20.10
2018-07-11T12:26:04.851Z,20.20
2018-07-11T12:28:32.514Z,20.30
2018-07-11T12:31:00.129Z,20.30
2018-07-11T12:33:28.684Z,20.40
2018-07-11T12:35:57.061Z,20.40
2018-07-11T12:38:24.674Z,20.30
2018-07-11T12:40:52.266Z,20.10
2018-07-11T12:43:20.392Z,20.00
2018-07-11T12:45:47.918Z,19.80
2018-07-11T12:48:21.295Z,19.80
2018-07-11T12:50:49.700Z,19.80
2018-07-11T12:53:17.696Z,19.80
2018-07-11T12:55:45.484Z,19.80
2018-07-11T12:58:13.585Z,19.90
2018-07-11T13:00:41.684Z,19.80
2018-07-11T13:05:37.719Z,19.70
2018-07-11T13:10:33.559Z,19.70
2018-07-11T13:15:28.976Z,19.80
2018-07-11T13:17:56.915Z,19.80
2018-07-11T13:20:24.469Z,19.80
2018-07-11T13:22:52.705Z,19.60
2018-07-11T13:25:20.769Z,19.50
2018-07-11T13:27:48.356Z,19.40
2018-07-11T13:32:43.716Z,19.40
2018-07-11T13:35:11.913Z,19.50
2018-07-11T13:37:39.496Z,19.50
2018-07-11T13:40:07.426Z,19.50
2018-07-11T13:42:35.317Z,19.50
2018-07-11T13:45:03.288Z,19.60
2018-07-11T13:47:30.820Z,19.60
2018-07-11T13:52:27.232Z,19.60
2018-07-11T13:54:55.174Z,19.60
2018-07-11T13:57:23.961Z,19.50
2018-07-11T13:59:51.542Z,19.50
2018-07-11T14:02:20.243Z,19.60
2018-07-11T14:04:48.708Z,19.60
2018-07-11T14:07:16.343Z,19.60
2018-07-11T14:09:44.356Z,19.50
2018-07-11T14:12:12.462Z,19.40
2018-07-11T14:14:40.214Z,19.40
2018-07-11T14:17:07.743Z,19.30
2018-07-11T14:19:35.527Z,19.30
2018-07-11T14:22:03.495Z,19.30
2018-07-11T14:24:31.496Z,19.30
2018-07-11T14:26:59.079Z,19.30
2018-07-11T14:29:28.679Z,19.40
2018-07-11T14:31:56.842Z,19.40
2018-07-11T14:34:24.895Z,19.40
2018-07-11T14:36:52.653Z,19.50
2018-07-11T14:39:20.567Z,19.40
2018-07-11T14:41:48.503Z,19.30
2018-07-11T14:44:17.157Z,19.30
2018-07-11T14:46:45.706Z,19.20
2018-07-11T14:49:15.348Z,19.20
2018-07-11T14:51:43.272Z,19.10
2018-07-11T14:54:10.884Z,19.00
2018-07-11T14:56:38.483Z,19.00
2018-07-11T14:59:06.172Z,19.00
2018-07-11T15:01:34.523Z,19.00
2018-07-11T15:04:02.648Z,19.00
2018-07-11T15:06:30.150Z,19.00
2018-07-11T15:08:58.130Z,18.90
2018-07-11T15:11:25.922Z,18.80
2018-07-11T15:16:21.570Z,18.70
2018-07-11T15:18:50.516Z,18.80
2018-07-11T15:21:18.076Z,18.80
2018-07-11T15:23:45.576Z,18.70
2018-07-11T15:26:13.222Z,18.60
2018-07-11T15:28:41.656Z,18.60
2018-07-11T15:31:09.260Z,18.60
2018-07-11T15:33:37.364Z,18.60
2018-07-11T15:36:05.676Z,18.60
2018-07-11T15:38:33.283Z,18.50
2018-07-11T15:41:01.353Z,18.50
2018-07-11T15:43:29.834Z,18.50
2018-07-11T15:45:58.211Z,18.40
2018-07-11T15:48:25.825Z,18.30
2018-07-11T15:50:54.173Z,18.20
2018-07-11T15:53:22.594Z,18.20
2018-07-11T15:55:51.140Z,18.30
2018-07-11T15:58:20.300Z,18.30
2018-07-11T16:03:17.776Z,18.30
2018-07-11T16:05:46.118Z,18.30
2018-07-11T16:08:16.640Z,18.20
2018-07-11T16:10:49.062Z,18.20
2018-07-11T16:13:16.924Z,18.20
2018-07-11T16:15:45.302Z,18.20
2018-07-11T16:18:13.271Z,18.10
2018-07-11T16:20:41.496Z,18.00
2018-07-11T16:23:09.911Z,17.90
2018-07-11T16:25:39.009Z,17.80
2018-07-11T16:28:06.688Z,17.80
2018-07-11T16:30:34.544Z,17.70
2018-07-11T16:33:03.203Z,17.70
2018-07-11T16:35:31.344Z,17.80
2018-07-11T16:37:59.413Z,17.70
2018-07-11T16:40:28.032Z,17.70
2018-07-11T16:42:56.690Z,17.60
2018-07-11T16:45:26.593Z,17.60
2018-07-11T16:47:55.436Z,17.60
2018-07-11T16:50:23.842Z,17.50
2018-07-11T16:52:52.628Z,17.50
2018-07-11T16:55:21.143Z,17.40
2018-07-11T16:57:50.531Z,17.40
2018-07-11T17:00:27.548Z,17.40
2018-07-11T17:03:07.241Z,17.30
2018-07-11T17:05:47.412Z,17.30
2018-07-11T17:08:27.454Z,17.30
2018-07-11T17:11:00.662Z,17.30
2018-07-11T17:13:29.540Z,17.30
2018-07-11T17:15:57.617Z,17.30
2018-07-11T17:18:34.378Z,17.30
2018-07-11T17:21:07.544Z,17.20
2018-07-11T17:23:39.152Z,17.20
2018-07-11T17:26:07.673Z,17.20
2018-07-11T17:28:35.616Z,17.20
2018-07-11T17:31:03.529Z,17.20
2018-07-11T17:33:32.270Z,17.20
2018-07-11T17:36:00.131Z,17.10
2018-07-11T17:38:30.695Z,17.10
2018-07-11T17:41:01.355Z,17.00
2018-07-11T17:43:36.875Z,17.00
2018-07-11T17:46:06.060Z,17.00
2018-07-11T17:48:42.092Z,17.00
2018-07-11T17:51:23.902Z,16.90
2018-07-11T17:53:55.412Z,17.00
2018-07-11T17:58:55.926Z,16.90
2018-07-11T18:01:40.883Z,16.90
2018-07-11T18:04:15.511Z,16.90
2018-07-11T18:06:59.944Z,16.90
2018-07-11T18:09:38.399Z,16.90
2018-07-11T18:12:21.314Z,16.90
2018-07-11T18:14:57.115Z,16.90
2018-07-11T18:18:49.339Z,16.90
2018-07-11T18:22:28.140Z,16.90
2018-07-11T18:25:31.646Z,16.80
2018-07-11T18:28:14.454Z,16.80
2018-07-11T18:30:54.456Z,16.70
2018-07-11T18:33:33.064Z,16.60
2018-07-11T18:36:12.593Z,16.70
2018-07-11T18:38:53.872Z,16.60
2018-07-11T18:41:41.869Z,16.60
2018-07-11T18:44:25.059Z,16.60
2018-07-11T18:48:03.033Z,16.60
2018-07-11T18:50:51.352Z,16.50
2018-07-11T18:53:44.192Z,16.40
2018-07-11T18:57:17.738Z,16.30
2018-07-11T18:59:55.793Z,16.30
2018-07-11T19:03:10.868Z,16.30
2018-07-11T19:05:46.202Z,16.20
2018-07-11T19:08:27.906Z,16.20
2018-07-11T19:11:02.404Z,16.30
2018-07-11T19:13:32.472Z,16.20
2018-07-11T19:16:12.886Z,16.20
2018-07-11T19:19:09.192Z,16.20
2018-07-11T19:21:51.012Z,16.20
2018-07-11T19:24:19.488Z,16.20
2018-07-11T19:27:04.449Z,16.20
2018-07-11T19:30:16.492Z,16.20
2018-07-11T19:33:51.028Z,16.20
2018-07-11T19:37:27.905Z,16.10
2018-07-11T19:40:12.020Z,16.10
2018-07-11T19:43:07.942Z,16.00
2018-07-11T19:46:49.321Z,16.10
2018-07-11T19:49:25.450Z,16.10
2018-07-11T19:52:02.751Z,16.00
2018-07-11T19:54:41.183Z,16.00
2018-07-11T19:57:09.553Z,16.00
2018-07-11T19:59:37.568Z,16.00
2018-07-11T20:02:05.239Z,16.00
2018-07-11T20:04:33.544Z,16.10
2018-07-11T20:07:01.604Z,16.10
2018-07-11T20:09:30.305Z,16.00
2018-07-11T20:11:58.140Z,15.90
2018-07-11T20:14:27.465Z,15.80
2018-07-11T20:16:55.012Z,15.80
2018-07-11T20:19:23.118Z,15.80
2018-07-11T20:21:50.708Z,15.80
2018-07-11T20:24:18.643Z,15.80
2018-07-11T20:26:46.753Z,15.80
2018-07-11T20:29:14.924Z,15.70
2018-07-11T20:31:43.738Z,15.80
2018-07-11T20:34:12.033Z,15.80
2018-07-11T20:36:39.565Z,15.70
2018-07-11T20:39:07.694Z,15.60
2018-07-11T20:41:35.994Z,15.60
2018-07-11T20:44:04.215Z,15.50
2018-07-11T20:46:32.910Z,15.50
2018-07-11T20:49:06.233Z,15.50
2018-07-11T20:51:35.666Z,15.50
2018-07-11T20:56:31.579Z,15.40
2018-07-11T20:59:10.460Z,15.40
2018-07-11T21:01:49.484Z,15.40
2018-07-11T21:04:26.065Z,15.40
2018-07-11T21:07:38.061Z,15.30
2018-07-11T21:10:28.188Z,15.30
2018-07-11T21:13:37.098Z,15.30
2018-07-11T21:16:16.492Z,15.20
2018-07-11T21:19:05.688Z,15.10
2018-07-11T21:21:34.504Z,15.00
2018-07-11T21:24:03.000Z,15.10
2018-07-11T21:26:30.512Z,15.10
2018-07-11T21:28:58.348Z,15.10
2018-07-11T21:31:26.288Z,15.10
2018-07-11T21:33:54.715Z,15.10
2018-07-11T21:36:22.296Z,15.10
2018-07-11T21:38:50.144Z,15.10
2018-07-11T21:41:18.552Z,15.20
2018-07-11T21:43:46.531Z,15.20
2018-07-11T21:46:14.729Z,15.20
2018-07-11T21:48:42.932Z,15.20
2018-07-11T21:51:10.497Z,15.20
2018-07-11T21:53:38.836Z,15.10
2018-07-11T21:56:06.360Z,15.10
2018-07-11T21:58:33.920Z,15.10
2018-07-11T22:01:02.427Z,15.00
2018-07-11T22:03:30.555Z,15.00
2018-07-11T22:08:26.148Z,14.90
2018-07-11T22:10:53.740Z,14.90
2018-07-11T22:13:21.324Z,14.90
2018-07-11T22:15:49.696Z,14.90
2018-07-11T22:18:34.320Z,14.80
2018-07-11T22:21:02.140Z,14.80
2018-07-11T22:23:28.797Z,14.70
2018-07-11T22:25:55.195Z,14.70
2018-07-11T22:28:21.683Z,14.70
2018-07-11T22:30:48.576Z,14.70
2018-07-11T22:33:16.058Z,14.70
2018-07-11T22:38:09.919Z,14.60
2018-07-11T22:40:36.568Z,14.60
2018-07-11T22:43:03.192Z,14.60
2018-07-11T22:45:30.120Z,14.50
2018-07-11T22:47:57.006Z,14.50
2018-07-11T22:50:24.766Z,14.40
2018-07-11T22:52:51.968Z,14.30
2018-07-11T22:57:46.288Z,14.20
2018-07-11T23:00:12.752Z,14.30
2018-07-11T23:02:40.192Z,14.30
2018-07-11T23:05:06.979Z,14.20
2018-07-11T23:07:34.387Z,14.30
2018-07-11T23:10:00.824Z,14.30
2018-07-11T23:12:27.280Z,14.30
2018-07-11T23:14:54.224Z,14.30
2018-07-11T23:17:21.080Z,14.30
2018-07-11T23:19:48.198Z,14.30
2018-07-11T23:22:14.672Z,14.30
2018-07-11T23:27:08.768Z,14.20
2018-07-11T23:29:35.241Z,14.10
2018-07-11T23:32:01.692Z,14.10
2018-07-11T23:34:28.676Z,14.10
2018-07-11T23:36:55.695Z,14.10
2018-07-11T23:39:22.230Z,14.10
2018-07-11T23:41:48.711Z,14.10
2018-07-11T23:44:15.512Z,14.10
2018-07-11T23:46:41.979Z,14.10
2018-07-11T23:49:08.858Z,14.10
2018-07-11T23:54:02.256Z,14.00
2018-07-11T23:56:28.747Z,13.90
2018-07-11T23:58:55.211Z,13.90
